sensor_id;sensor_type;location;lat;lon;timestamp;pressure;altitude;pressure_sealevel;temperature;humidity
75891;BME280;64571;47.512;19.054;2023-12-07T00:01:30;100290.31;;;1.04;100.00
75891;BME280;64571;47.512;19.054;2023-12-07T00:04:33;100301.47;;;1.14;100.00
75891;BME280;64571;47.512;19.054;2023-12-07T00:07:35;100287.78;;;1.02;100.00
75891;BME280;64571;47.512;19.054;2023-12-07T00:10:38;100303.97;;;1.27;100.00
75891;BME280;64571;47.512;19.054;2023-12-07T00:13:41;100280.06;;;1.11;100.00
75891;BME280;64571;47.512;19.054;2023-12-07T00:16:43;100304.09;;;1.21;100.00
75891;BME280;64571;47.512;19.054;2023-12-07T00:19:46;100306.00;;;1.20;100.00
75891;BME280;64571;47.512;19.054;2023-12-07T00:22:48;100301.72;;;1.24;100.00
75891;BME280;64571;47.512;19.054;2023-12-07T00:25:51;100308.97;;;1.19;100.00
75891;BME280;64571;47.512;19.054;2023-12-07T00:28:55;100285.88;;;1.03;100.00
75891;BME280;64571;47.512;19.054;2023-12-07T00:31:58;100301.03;;;1.17;100.00
75891;BME280;64571;47.512;19.054;2023-12-07T00:35:00;100301.84;;;1.18;100.00
75891;BME280;64571;47.512;19.054;2023-12-07T00:38:03;100310.38;;;1.21;100.00
75891;BME280;64571;47.512;19.054;2023-12-07T00:41:06;100302.91;;;1.17;100.00
75891;BME280;64571;47.512;19.054;2023-12-07T00:44:08;100309.22;;;1.17;100.00
75891;BME280;64571;47.512;19.054;2023-12-07T00:47:11;100304.69;;;1.11;100.00
75891;BME280;64571;47.512;19.054;2023-12-07T00:50:13;100287.44;;;0.99;100.00
75891;BME280;64571;47.512;19.054;2023-12-07T00:53:17;100307.44;;;1.11;100.00
75891;BME280;64571;47.512;19.054;2023-12-07T00:56:19;100290.88;;;0.94;100.00
75891;BME280;64571;47.512;19.054;2023-12-07T00:59:22;100309.34;;;1.11;100.00
75891;BME280;64571;47.512;19.054;2023-12-07T01:02:24;100306.00;;;1.09;100.00
75891;BME280;64571;47.512;19.054;2023-12-07T01:05:27;100308.63;;;1.15;100.00
75891;BME280;64571;47.512;19.054;2023-12-07T01:08:30;100303.03;;;1.10;100.00
75891;BME280;64571;47.512;19.054;2023-12-07T01:11:33;100303.97;;;1.16;100.00
75891;BME280;64571;47.512;19.054;2023-12-07T01:14:35;100307.53;;;1.16;100.00
75891;BME280;64571;47.512;19.054;2023-12-07T01:17:38;100303.59;;;1.12;100.00
75891;BME280;64571;47.512;19.054;2023-12-07T01:20:41;100302.66;;;1.07;100.00
75891;BME280;64571;47.512;19.054;2023-12-07T01:23:45;100268.53;;;0.97;100.00
75891;BME280;64571;47.512;19.054;2023-12-07T01:26:48;100299.47;;;1.10;100.00
75891;BME280;64571;47.512;19.054;2023-12-07T01:29:51;100298.37;;;1.11;100.00
75891;BME280;64571;47.512;19.054;2023-12-07T01:32:53;100292.09;;;1.10;100.00
75891;BME280;64571;47.512;19.054;2023-12-07T01:35:56;100290.28;;;1.16;100.00
75891;BME280;64571;47.512;19.054;2023-12-07T01:38:59;100290.91;;;1.18;100.00
75891;BME280;64571;47.512;19.054;2023-12-07T01:42:02;100268.75;;;1.08;100.00
75891;BME280;64571;47.512;19.054;2023-12-07T01:45:06;100287.91;;;1.19;100.00
75891;BME280;64571;47.512;19.054;2023-12-07T01:48:09;100281.47;;;1.25;100.00
75891;BME280;64571;47.512;19.054;2023-12-07T01:51:12;100263.41;;;1.13;100.00
75891;BME280;64571;47.512;19.054;2023-12-07T01:54:14;100288.50;;;1.21;100.00
75891;BME280;64571;47.512;19.054;2023-12-07T01:57:17;100269.47;;;1.15;100.00
75891;BME280;64571;47.512;19.054;2023-12-07T02:00:20;100285.66;;;1.28;100.00
75891;BME280;64571;47.512;19.054;2023-12-07T02:03:23;100290.03;;;1.29;100.00
75891;BME280;64571;47.512;19.054;2023-12-07T02:06:26;100268.66;;;1.14;100.00
75891;BME280;64571;47.512;19.054;2023-12-07T02:09:29;100269.34;;;1.21;100.00
75891;BME280;64571;47.512;19.054;2023-12-07T02:12:31;100266.00;;;1.19;100.00
75891;BME280;64571;47.512;19.054;2023-12-07T02:15:34;100286.59;;;1.34;100.00
75891;BME280;64571;47.512;19.054;2023-12-07T02:18:40;100266.59;;;1.21;100.00
75891;BME280;64571;47.512;19.054;2023-12-07T02:22:17;100286.38;;;1.35;100.00
75891;BME280;64571;47.512;19.054;2023-12-07T02:25:27;100287.66;;;1.33;100.00
75891;BME280;64571;47.512;19.054;2023-12-07T02:28:30;100280.28;;;1.33;100.00
75891;BME280;64571;47.512;19.054;2023-12-07T02:31:33;100256.16;;;1.18;100.00
75891;BME280;64571;47.512;19.054;2023-12-07T02:34:36;100286.00;;;1.32;100.00
75891;BME280;64571;47.512;19.054;2023-12-07T02:37:48;100268.28;;;1.22;100.00
75891;BME280;64571;47.512;19.054;2023-12-07T02:40:53;100258.38;;;1.21;100.00
75891;BME280;64571;47.512;19.054;2023-12-07T02:43:57;100285.50;;;1.35;100.00
75891;BME280;64571;47.512;19.054;2023-12-07T02:46:59;100278.97;;;1.36;100.00
75891;BME280;64571;47.512;19.054;2023-12-07T02:50:04;100265.03;;;1.25;100.00
75891;BME280;64571;47.512;19.054;2023-12-07T02:53:06;100288.84;;;1.37;100.00
75891;BME280;64571;47.512;19.054;2023-12-07T02:56:09;100281.00;;;1.29;100.00
75891;BME280;64571;47.512;19.054;2023-12-07T02:59:11;100266.59;;;1.21;100.00
75891;BME280;64571;47.512;19.054;2023-12-07T03:02:14;100268.50;;;1.21;100.00
75891;BME280;64571;47.512;19.054;2023-12-07T03:05:16;100298.03;;;1.31;100.00
75891;BME280;64571;47.512;19.054;2023-12-07T03:08:19;100290.28;;;1.27;100.00
75891;BME280;64571;47.512;19.054;2023-12-07T03:11:21;100274.94;;;1.15;100.00
75891;BME280;64571;47.512;19.054;2023-12-07T03:14:24;100297.66;;;1.27;100.00
75891;BME280;64571;47.512;19.054;2023-12-07T03:17:26;100301.47;;;1.26;100.00
75891;BME280;64571;47.512;19.054;2023-12-07T03:20:29;100302.78;;;1.23;100.00
75891;BME280;64571;47.512;19.054;2023-12-07T03:23:32;100300.63;;;1.25;100.00
75891;BME280;64571;47.512;19.054;2023-12-07T03:26:34;100309.66;;;1.26;100.00
75891;BME280;64571;47.512;19.054;2023-12-07T03:29:37;100303.25;;;1.20;100.00
75891;BME280;64571;47.512;19.054;2023-12-07T03:32:39;100321.84;;;1.18;100.00
75891;BME280;64571;47.512;19.054;2023-12-07T03:35:42;100320.19;;;1.17;100.00
75891;BME280;64571;47.512;19.054;2023-12-07T03:38:45;100294.56;;;1.12;100.00
75891;BME280;64571;47.512;19.054;2023-12-07T03:41:47;100317.56;;;1.22;100.00
75891;BME280;64571;47.512;19.054;2023-12-07T03:44:50;100306.00;;;1.20;100.00
75891;BME280;64571;47.512;19.054;2023-12-07T03:47:52;100320.97;;;1.30;100.00
75891;BME280;64571;47.512;19.054;2023-12-07T03:50:55;100319.06;;;1.30;100.00
75891;BME280;64571;47.512;19.054;2023-12-07T03:53:57;100324.31;;;1.32;100.00
75891;BME280;64571;47.512;19.054;2023-12-07T03:57:00;100327.53;;;1.29;100.00
75891;BME280;64571;47.512;19.054;2023-12-07T04:00:03;100306.13;;;1.14;100.00
75891;BME280;64571;47.512;19.054;2023-12-07T04:03:07;100325.41;;;1.19;100.00
75891;BME280;64571;47.512;19.054;2023-12-07T04:06:09;100326.81;;;1.21;100.00
75891;BME280;64571;47.512;19.054;2023-12-07T04:09:12;100312.31;;;1.09;100.00
75891;BME280;64571;47.512;19.054;2023-12-07T04:12:14;100336.94;;;1.21;100.00
75891;BME280;64571;47.512;19.054;2023-12-07T04:15:18;100341.22;;;1.17;100.00
75891;BME280;64571;47.512;19.054;2023-12-07T04:18:21;100345.53;;;1.13;100.00
75891;BME280;64571;47.512;19.054;2023-12-07T04:21:25;100348.47;;;1.11;100.00
75891;BME280;64571;47.512;19.054;2023-12-07T04:24:28;100347.19;;;1.14;100.00
75891;BME280;64571;47.512;19.054;2023-12-07T04:27:33;100343.50;;;1.08;100.00
75891;BME280;64571;47.512;19.054;2023-12-07T04:30:36;100342.53;;;1.14;100.00
75891;BME280;64571;47.512;19.054;2023-12-07T04:33:38;100347.66;;;1.11;100.00
75891;BME280;64571;47.512;19.054;2023-12-07T04:36:41;100353.94;;;1.11;100.00
75891;BME280;64571;47.512;19.054;2023-12-07T04:39:44;100333.59;;;0.95;100.00
75891;BME280;64571;47.512;19.054;2023-12-07T04:42:46;100362.03;;;1.06;100.00
75891;BME280;64571;47.512;19.054;2023-12-07T04:45:49;100337.75;;;0.98;100.00
75891;BME280;64571;47.512;19.054;2023-12-07T04:48:51;100359.31;;;1.06;100.00
75891;BME280;64571;47.512;19.054;2023-12-07T04:51:54;100362.87;;;1.07;100.00
75891;BME280;64571;47.512;19.054;2023-12-07T04:54:56;100350.34;;;0.99;100.00
75891;BME280;64571;47.512;19.054;2023-12-07T04:57:59;100359.53;;;1.05;100.00
75891;BME280;64571;47.512;19.054;2023-12-07T05:01:02;100347.16;;;0.90;100.00
75891;BME280;64571;47.512;19.054;2023-12-07T05:04:05;100377.16;;;1.09;100.00
75891;BME280;64571;47.512;19.054;2023-12-07T05:07:08;100377.16;;;1.09;100.00
75891;BME280;64571;47.512;19.054;2023-12-07T05:10:11;100371.06;;;0.95;100.00
75891;BME280;64571;47.512;19.054;2023-12-07T05:13:13;100385.59;;;1.07;100.00
75891;BME280;64571;47.512;19.054;2023-12-07T05:16:16;100379.06;;;1.08;100.00
75891;BME280;64571;47.512;19.054;2023-12-07T05:19:25;100365.59;;;0.95;100.00
75891;BME280;64571;47.512;19.054;2023-12-07T05:22:27;100382.34;;;0.98;100.00
75891;BME280;64571;47.512;19.054;2023-12-07T05:25:31;100398.69;;;1.05;100.00
75891;BME280;64571;47.512;19.054;2023-12-07T05:28:36;100397.72;;;0.99;100.00
75891;BME280;64571;47.512;19.054;2023-12-07T05:31:39;100399.75;;;1.04;100.00
75891;BME280;64571;47.512;19.054;2023-12-07T05:34:42;100399.75;;;1.04;100.00
75891;BME280;64571;47.512;19.054;2023-12-07T05:37:44;100406.53;;;1.01;100.00
75891;BME280;64571;47.512;19.054;2023-12-07T05:40:47;100387.34;;;0.90;100.00
75891;BME280;64571;47.512;19.054;2023-12-07T05:43:49;100415.59;;;1.14;100.00
75891;BME280;64571;47.512;19.054;2023-12-07T05:46:53;100417.72;;;1.12;100.00
75891;BME280;64571;47.512;19.054;2023-12-07T05:49:56;100416.78;;;1.18;100.00
75891;BME280;64571;47.512;19.054;2023-12-07T05:53:01;100396.41;;;1.02;100.00
75891;BME280;64571;47.512;19.054;2023-12-07T05:56:03;100419.03;;;1.21;100.00
75891;BME280;64571;47.512;19.054;2023-12-07T05:59:07;100419.87;;;1.21;100.00
75891;BME280;64571;47.512;19.054;2023-12-07T06:02:10;100427.25;;;1.21;100.00
75891;BME280;64571;47.512;19.054;2023-12-07T06:05:13;100436.28;;;1.21;100.00
75891;BME280;64571;47.512;19.054;2023-12-07T06:08:15;100432.12;;;1.19;100.00
75891;BME280;64571;47.512;19.054;2023-12-07T06:11:18;100408.78;;;1.05;100.00
75891;BME280;64571;47.512;19.054;2023-12-07T06:14:20;100438.44;;;1.19;100.00
75891;BME280;64571;47.512;19.054;2023-12-07T06:17:25;100438.44;;;1.19;100.00
75891;BME280;64571;47.512;19.054;2023-12-07T06:20:27;100443.53;;;1.16;100.00
75891;BME280;64571;47.512;19.054;2023-12-07T06:23:30;100423.06;;;1.07;100.00
75891;BME280;64571;47.512;19.054;2023-12-07T06:26:33;100449.38;;;1.19;100.00
75891;BME280;64571;47.512;19.054;2023-12-07T06:29:35;100445.56;;;1.20;100.00
75891;BME280;64571;47.512;19.054;2023-12-07T06:32:38;100456.78;;;1.19;100.00
75891;BME280;64571;47.512;19.054;2023-12-07T06:35:41;100449.84;;;1.16;100.00
75891;BME280;64571;47.512;19.054;2023-12-07T06:38:43;100439.12;;;1.03;100.00
75891;BME280;64571;47.512;19.054;2023-12-07T06:41:46;100459.50;;;1.19;100.00
75891;BME280;64571;47.512;19.054;2023-12-07T06:44:48;100461.16;;;1.20;100.00
75891;BME280;64571;47.512;19.054;2023-12-07T06:47:51;100474.41;;;1.23;100.00
75891;BME280;64571;47.512;19.054;2023-12-07T06:50:54;100469.75;;;1.23;100.00
75891;BME280;64571;47.512;19.054;2023-12-07T06:53:56;100479.16;;;1.27;100.00
75891;BME280;64571;47.512;19.054;2023-12-07T06:56:59;100454.13;;;1.12;100.00
75891;BME280;64571;47.512;19.054;2023-12-07T07:00:02;100483.56;;;1.29;100.00
75891;BME280;64571;47.512;19.054;2023-12-07T07:03:08;100487.13;;;1.29;100.00
75891;BME280;64571;47.512;19.054;2023-12-07T07:06:11;100484.03;;;1.25;100.00
75891;BME280;64571;47.512;19.054;2023-12-07T07:09:13;100489.66;;;1.31;100.00
75891;BME280;64571;47.512;19.054;2023-12-07T07:12:18;100488.56;;;1.32;100.00
75891;BME280;64571;47.512;19.054;2023-12-07T07:15:20;100475.94;;;1.19;100.00
75891;BME280;64571;47.512;19.054;2023-12-07T07:18:23;100489.66;;;1.31;100.00
75891;BME280;64571;47.512;19.054;2023-12-07T07:21:27;100471.28;;;1.19;100.00
75891;BME280;64571;47.512;19.054;2023-12-07T07:24:30;100494.06;;;1.32;100.00
75891;BME280;64571;47.512;19.054;2023-12-07T07:27:32;100497.87;;;1.31;100.00
75891;BME280;64571;47.512;19.054;2023-12-07T07:30:36;100495.34;;;1.29;100.00
75891;BME280;64571;47.512;19.054;2023-12-07T07:33:38;100506.66;;;1.33;100.00
75891;BME280;64571;47.512;19.054;2023-12-07T07:36:41;100504.38;;;1.30;100.00
75891;BME280;64571;47.512;19.054;2023-12-07T07:39:44;100488.78;;;1.18;100.00
75891;BME280;64571;47.512;19.054;2023-12-07T07:42:47;100511.56;;;1.31;100.00
75891;BME280;64571;47.512;19.054;2023-12-07T07:45:49;100513.94;;;1.39;100.00
75891;BME280;64571;47.512;19.054;2023-12-07T07:48:52;100498.91;;;1.18;100.00
75891;BME280;64571;47.512;19.054;2023-12-07T07:51:54;100517.38;;;1.34;100.00
75891;BME280;64571;47.512;19.054;2023-12-07T07:54:57;100520.72;;;1.36;100.00
75891;BME280;64571;47.512;19.054;2023-12-07T07:58:00;100523.69;;;1.35;100.00
75891;BME280;64571;47.512;19.054;2023-12-07T08:01:02;100519.41;;;1.39;100.00
75891;BME280;64571;47.512;19.054;2023-12-07T08:04:06;100532.75;;;1.35;100.00
75891;BME280;64571;47.512;19.054;2023-12-07T08:07:08;100535.50;;;1.35;100.00
75891;BME280;64571;47.512;19.054;2023-12-07T08:10:13;100516.53;;;1.22;100.00
75891;BME280;64571;47.512;19.054;2023-12-07T08:13:16;100539.50;;;1.33;100.00
75891;BME280;64571;47.512;19.054;2023-12-07T08:16:19;100532.97;;;1.34;100.00
75891;BME280;64571;47.512;19.054;2023-12-07T08:19:21;100530.16;;;1.40;100.00
75891;BME280;64571;47.512;19.054;2023-12-07T08:22:24;100539.19;;;1.41;100.00
75891;BME280;64571;47.512;19.054;2023-12-07T08:25:26;100514.50;;;1.29;100.00
75891;BME280;64571;47.512;19.054;2023-12-07T08:28:29;100523.69;;;1.35;100.00
75891;BME280;64571;47.512;19.054;2023-12-07T08:31:31;100522.34;;;1.25;100.00
75891;BME280;64571;47.512;19.054;2023-12-07T08:34:34;100513.22;;;1.32;100.00
75891;BME280;64571;47.512;19.054;2023-12-07T08:37:37;100511.06;;;1.34;100.00
75891;BME280;64571;47.512;19.054;2023-12-07T08:40:41;100528.13;;;1.47;100.00
75891;BME280;64571;47.512;19.054;2023-12-07T08:43:44;100529.56;;;1.50;100.00
75891;BME280;64571;47.512;19.054;2023-12-07T08:46:47;100515.25;;;1.36;100.00
75891;BME280;64571;47.512;19.054;2023-12-07T08:49:50;100515.63;;;1.40;100.00
75891;BME280;64571;47.512;19.054;2023-12-07T08:52:53;100517.03;;;1.42;100.00
75891;BME280;64571;47.512;19.054;2023-12-07T08:56:05;100538.59;;;1.50;100.00
75891;BME280;64571;47.512;19.054;2023-12-07T08:59:08;100535.41;;;1.54;100.00
75891;BME280;64571;47.512;19.054;2023-12-07T09:02:11;100519.81;;;1.54;100.00
75891;BME280;64571;47.512;19.054;2023-12-07T09:05:15;100542.91;;;1.70;100.00
75891;BME280;64571;47.512;19.054;2023-12-07T09:08:17;100549.72;;;1.67;100.00
75891;BME280;64571;47.512;19.054;2023-12-07T09:11:20;100524.22;;;1.55;100.00
75891;BME280;64571;47.512;19.054;2023-12-07T09:14:23;100551.03;;;1.76;100.00
75891;BME280;64571;47.512;19.054;2023-12-07T09:17:26;100540.91;;;1.89;100.00
75891;BME280;64571;47.512;19.054;2023-12-07T09:20:30;100545.09;;;1.91;100.00
75891;BME280;64571;47.512;19.054;2023-12-07T09:23:32;100525.78;;;1.74;100.00
75891;BME280;64571;47.512;19.054;2023-12-07T09:26:35;100545.09;;;1.91;100.00
75891;BME280;64571;47.512;19.054;2023-12-07T09:29:39;100545.09;;;1.91;100.00
75891;BME280;64571;47.512;19.054;2023-12-07T09:32:42;100531.75;;;1.83;100.00
75891;BME280;64571;47.512;19.054;2023-12-07T09:35:47;100523.31;;;1.85;100.00
75891;BME280;64571;47.512;19.054;2023-12-07T09:38:49;100537.94;;;2.02;100.00
75891;BME280;64571;47.512;19.054;2023-12-07T09:41:52;100540.34;;;1.98;100.00
75891;BME280;64571;47.512;19.054;2023-12-07T09:44:55;100534.72;;;2.05;100.00
75891;BME280;64571;47.512;19.054;2023-12-07T09:47:59;100535.31;;;2.07;100.00
75891;BME280;64571;47.512;19.054;2023-12-07T09:51:03;100512.22;;;2.03;100.00
75891;BME280;64571;47.512;19.054;2023-12-07T09:54:07;100537.09;;;2.25;100.00
75891;BME280;64571;47.512;19.054;2023-12-07T09:57:10;100510.91;;;2.17;100.00
75891;BME280;64571;47.512;19.054;2023-12-07T10:00:13;100536.25;;;2.24;100.00
75891;BME280;64571;47.512;19.054;2023-12-07T10:03:21;100537.94;;;2.25;100.00
75891;BME280;64571;47.512;19.054;2023-12-07T10:06:42;100534.59;;;2.23;100.00
75891;BME280;64571;47.512;19.054;2023-12-07T10:09:46;100515.56;;;2.17;100.00
75891;BME280;64571;47.512;19.054;2023-12-07T10:12:52;100545.94;;;2.27;100.00
75891;BME280;64571;47.512;19.054;2023-12-07T10:16:15;100521.03;;;2.17;100.00
75891;BME280;64571;47.512;19.054;2023-12-07T10:19:18;100534.25;;;2.32;100.00
75891;BME280;64571;47.512;19.054;2023-12-07T10:22:34;100525.06;;;2.26;100.00
75891;BME280;64571;47.512;19.054;2023-12-07T10:25:41;100518.75;;;2.14;100.00
75891;BME280;64571;47.512;19.054;2023-12-07T10:28:45;100519.69;;;2.19;100.00
75891;BME280;64571;47.512;19.054;2023-12-07T10:31:49;100534.97;;;2.27;100.00
75891;BME280;64571;47.512;19.054;2023-12-07T10:34:53;100531.97;;;2.28;100.00
75891;BME280;64571;47.512;19.054;2023-12-07T10:37:56;100531.25;;;2.33;100.00
75891;BME280;64571;47.512;19.054;2023-12-07T10:41:04;100520.78;;;2.30;100.00
75891;BME280;64571;47.512;19.054;2023-12-07T10:44:11;100518.00;;;2.42;100.00
75891;BME280;64571;47.512;19.054;2023-12-07T10:47:16;100532.63;;;2.59;100.00
75891;BME280;64571;47.512;19.054;2023-12-07T10:50:23;100527.75;;;2.61;100.00
75891;BME280;64571;47.512;19.054;2023-12-07T10:53:33;100515.97;;;2.49;100.00
75891;BME280;64571;47.512;19.054;2023-12-07T10:56:44;100544.09;;;2.56;100.00
75891;BME280;64571;47.512;19.054;2023-12-07T10:59:48;100541.00;;;2.52;100.00
75891;BME280;64571;47.512;19.054;2023-12-07T11:02:53;100515.97;;;2.37;100.00
75891;BME280;64571;47.512;19.054;2023-12-07T11:05:56;100544.22;;;2.49;100.00
75891;BME280;64571;47.512;19.054;2023-12-07T11:09:02;100529.13;;;2.35;100.00
75891;BME280;64571;47.512;19.054;2023-12-07T11:12:10;100535.28;;;2.42;100.00
75891;BME280;64571;47.512;19.054;2023-12-07T11:15:16;100531.69;;;2.53;100.00
75891;BME280;64571;47.512;19.054;2023-12-07T11:18:19;100545.41;;;2.53;100.00
75891;BME280;64571;47.512;19.054;2023-12-07T11:21:22;100539.25;;;2.35;100.00
75891;BME280;64571;47.512;19.054;2023-12-07T11:24:25;100555.78;;;2.51;100.00
75891;BME280;64571;47.512;19.054;2023-12-07T11:27:32;100528.87;;;2.37;100.00
75891;BME280;64571;47.512;19.054;2023-12-07T11:30:36;100550.53;;;2.50;100.00
75891;BME280;64571;47.512;19.054;2023-12-07T11:33:39;100554.72;;;2.52;100.00
75891;BME280;64571;47.512;19.054;2023-12-07T11:36:45;100557.69;;;2.51;100.00
75891;BME280;64571;47.512;19.054;2023-12-07T11:39:48;100555.66;;;2.58;100.00
75891;BME280;64571;47.512;19.054;2023-12-07T11:42:52;100551.38;;;2.62;100.00
75891;BME280;64571;47.512;19.054;2023-12-07T11:45:55;100547.66;;;2.68;100.00
75891;BME280;64571;47.512;19.054;2023-12-07T11:48:58;100522.03;;;2.63;99.76
75891;BME280;64571;47.512;19.054;2023-12-07T11:55:20;100556.97;;;2.67;99.83
75891;BME280;64571;47.512;19.054;2023-12-07T11:58:24;100540.62;;;2.61;100.00
75891;BME280;64571;47.512;19.054;2023-12-07T12:01:28;100543.25;;;2.67;100.00
75891;BME280;64571;47.512;19.054;2023-12-07T12:04:33;100532.75;;;2.64;100.00
75891;BME280;64571;47.512;19.054;2023-12-07T12:07:35;100557.62;;;2.74;100.00
75891;BME280;64571;47.512;19.054;2023-12-07T12:10:39;100533.34;;;2.66;100.00
75891;BME280;64571;47.512;19.054;2023-12-07T12:13:42;100535.84;;;2.68;100.00
75891;BME280;64571;47.512;19.054;2023-12-07T12:16:48;100558.59;;;2.80;99.87
75891;BME280;64571;47.512;19.054;2023-12-07T12:19:51;100563.00;;;2.81;100.00
75891;BME280;64571;47.512;19.054;2023-12-07T12:22:57;100557.16;;;2.77;100.00
75891;BME280;64571;47.512;19.054;2023-12-07T12:26:00;100565.75;;;2.69;100.00
75891;BME280;64571;47.512;19.054;2023-12-07T12:29:04;100567.22;;;2.60;100.00
75891;BME280;64571;47.512;19.054;2023-12-07T12:32:11;100569.59;;;2.57;100.00
75891;BME280;64571;47.512;19.054;2023-12-07T12:35:14;100571.88;;;2.60;100.00
75891;BME280;64571;47.512;19.054;2023-12-07T12:38:17;100570.09;;;2.53;100.00
75891;BME280;64571;47.512;19.054;2023-12-07T12:41:36;100570.94;;;2.54;100.00
75891;BME280;64571;47.512;19.054;2023-12-07T12:44:39;100580.47;;;2.51;100.00
75891;BME280;64571;47.512;19.054;2023-12-07T12:47:42;100562.03;;;2.35;100.00
75891;BME280;64571;47.512;19.054;2023-12-07T12:50:47;100580.25;;;2.41;100.00
75891;BME280;64571;47.512;19.054;2023-12-07T12:53:52;100588.84;;;2.45;100.00
75891;BME280;64571;47.512;19.054;2023-12-07T12:56:54;100587.28;;;2.37;100.00
75891;BME280;64571;47.512;19.054;2023-12-07T12:59:57;100577.16;;;2.38;100.00
75891;BME280;64571;47.512;19.054;2023-12-07T13:03:04;100580.75;;;2.26;100.00
75891;BME280;64571;47.512;19.054;2023-12-07T13:06:07;100590.38;;;2.41;100.00
75891;BME280;64571;47.512;19.054;2023-12-07T13:09:09;100598.72;;;2.34;100.00
75891;BME280;64571;47.512;19.054;2023-12-07T13:12:12;100570.84;;;2.25;100.00
75891;BME280;64571;47.512;19.054;2023-12-07T13:15:14;100587.75;;;2.34;100.00
75891;BME280;64571;47.512;19.054;2023-12-07T13:18:17;100580.84;;;2.20;100.00
75891;BME280;64571;47.512;19.054;2023-12-07T13:21:21;100600.06;;;2.32;100.00
75891;BME280;64571;47.512;19.054;2023-12-07T13:24:25;100610.19;;;2.31;100.00
75891;BME280;64571;47.512;19.054;2023-12-07T13:27:27;100607.19;;;2.33;100.00
75891;BME280;64571;47.512;19.054;2023-12-07T13:30:30;100587.16;;;2.20;100.00
75891;BME280;64571;47.512;19.054;2023-12-07T13:33:37;100609.13;;;2.44;100.00
75891;BME280;64571;47.512;19.054;2023-12-07T13:36:55;100607.19;;;2.33;100.00
75891;BME280;64571;47.512;19.054;2023-12-07T13:39:57;100591.81;;;2.20;100.00
75891;BME280;64571;47.512;19.054;2023-12-07T13:43:00;100593.50;;;2.21;100.00
75891;BME280;64571;47.512;19.054;2023-12-07T13:46:02;100600.16;;;2.25;100.00
75891;BME280;64571;47.512;19.054;2023-12-07T13:49:05;100601.34;;;2.29;100.00
75891;BME280;64571;47.512;19.054;2023-12-07T13:52:12;100610.91;;;2.26;100.00
75891;BME280;64571;47.512;19.054;2023-12-07T13:55:19;100616.37;;;2.26;100.00
75891;BME280;64571;47.512;19.054;2023-12-07T13:58:21;100621.97;;;2.32;100.00
75891;BME280;64571;47.512;19.054;2023-12-07T14:01:24;100614.59;;;2.32;100.00
75891;BME280;64571;47.512;19.054;2023-12-07T14:04:28;100623.91;;;2.31;100.00
75891;BME280;64571;47.512;19.054;2023-12-07T14:07:31;100631.19;;;2.25;100.00
75891;BME280;64571;47.512;19.054;2023-12-07T14:10:34;100631.97;;;2.14;100.00
75891;BME280;64571;47.512;19.054;2023-12-07T14:13:37;100612.31;;;1.94;100.00
75891;BME280;64571;47.512;19.054;2023-12-07T14:16:41;100617.91;;;1.99;100.00
75891;BME280;64571;47.512;19.054;2023-12-07T14:20:07;100644.03;;;2.13;100.00
75891;BME280;64571;47.512;19.054;2023-12-07T14:23:30;100628.50;;;2.07;100.00
75891;BME280;64571;47.512;19.054;2023-12-07T14:26:33;100648.88;;;2.11;100.00
75891;BME280;64571;47.512;19.054;2023-12-07T14:29:36;100644.37;;;2.05;100.00
75891;BME280;64571;47.512;19.054;2023-12-07T14:32:38;100668.09;;;2.11;100.00
75891;BME280;64571;47.512;19.054;2023-12-07T14:35:46;100671.31;;;2.08;100.00
75891;BME280;64571;47.512;19.054;2023-12-07T14:38:51;100677.63;;;2.09;100.00
75891;BME280;64571;47.512;19.054;2023-12-07T14:41:53;100664.63;;;2.04;100.00
75891;BME280;64571;47.512;19.054;2023-12-07T14:44:58;100691.00;;;2.17;100.00
75891;BME280;64571;47.512;19.054;2023-12-07T14:48:01;100694.31;;;2.19;100.00
75891;BME280;64571;47.512;19.054;2023-12-07T14:51:04;100671.66;;;2.00;100.00
75891;BME280;64571;47.512;19.054;2023-12-07T14:54:07;100679.12;;;1.93;100.00
75891;BME280;64571;47.512;19.054;2023-12-07T14:57:13;100697.03;;;2.07;100.00
75891;BME280;64571;47.512;19.054;2023-12-07T15:00:16;100702.88;;;2.11;100.00
75891;BME280;64571;47.512;19.054;2023-12-07T15:03:20;100686.19;;;2.00;100.00
75891;BME280;64571;47.512;19.054;2023-12-07T15:06:28;100706.25;;;2.13;100.00
75891;BME280;64571;47.512;19.054;2023-12-07T15:09:31;100690.84;;;2.00;100.00
75891;BME280;64571;47.512;19.054;2023-12-07T15:12:34;100712.94;;;2.17;100.00
75891;BME280;64571;47.512;19.054;2023-12-07T15:15:36;100713.41;;;2.14;100.00
75891;BME280;64571;47.512;19.054;2023-12-07T15:18:40;100719.34;;;2.11;100.00
75891;BME280;64571;47.512;19.054;2023-12-07T15:21:47;100700.59;;;1.96;100.00
75891;BME280;64571;47.512;19.054;2023-12-07T15:24:50;100710.72;;;1.95;100.00
75891;BME280;64571;47.512;19.054;2023-12-07T15:27:53;100718.25;;;2.00;100.00
75891;BME280;64571;47.512;19.054;2023-12-07T15:30:55;100734.56;;;2.07;100.00
75891;BME280;64571;47.512;19.054;2023-12-07T15:33:58;100709.66;;;1.96;100.00
75891;BME280;64571;47.512;19.054;2023-12-07T15:37:01;100735.41;;;2.07;100.00
75891;BME280;64571;47.512;19.054;2023-12-07T15:40:04;100721.31;;;1.92;100.00
75891;BME280;64571;47.512;19.054;2023-12-07T15:43:07;100719.63;;;1.91;100.00
75891;BME280;64571;47.512;19.054;2023-12-07T15:46:09;100726.34;;;1.95;100.00
75891;BME280;64571;47.512;19.054;2023-12-07T15:49:12;100745.66;;;2.00;100.00
75891;BME280;64571;47.512;19.054;2023-12-07T15:52:15;100737.66;;;1.98;100.00